Search for airport 
image banner adimage banner adimage banner ad
image banner ad

L65 - Perris Valley

Located in Perris, United States

ICAO - L65, IATA -

Data provided by Airmate  

General information

Coordinates: N33°45'53" W117°13'8"
Elevation is 1413 feet MSL.
Magnetic variation is 14° East
View others Airports in California

Operational data

Special qualification required
Current time UTC:
Current local time:
Weather at : KRIV - March Arb ( 14 km )
METAR: KRIV 260858Z 30007KT 10SM FEW150 BKN200 17/14 A3002 RMK AO2A SLPNO ALSTG ESTMD
TAF: TAF KRIV 260404Z 2604/2710 32006KT 9999 BKN200 QNH3000INS BECMG 2604/2605 VRB04KT 9999 SCT200 QNH2998INS BECMG 2611/2612 29004KT 3200 BR OVC002 QNH2998INS BECMG 2616/2617 29004KT 6000 BR BKN007 QNH3002INS BECMG 2617/2618 32006KT 9999 NSW FEW010 FEW120 QNH2999INS BECMG 2620/2621 31009KT 9999 SCT120 QNH2997INS TS OMTNS NE TIL 2701 TEMPO 2621/2701 31012G18KT BECMG 2704/2705 VRB04KT 9999 SKC QNH3000INS BECMG 2709/2710 VRB04KT 8000 BR SCT005 QNH3000INS TX29/2622Z TN16/2613Z
View NOTAMs / SUP AIP / TFR affecting this airport [VIEW]
Communications frequencies: [VIEW]

Runways:

RWY identifierQFULength (ft)Width (ft)SurfaceLDA (ft)
15510050ASPH
33510050ASPH

Airport contact information

Address: Perris United States

Satellite view of L65